createdAt,value
2023-06-27T00:00:00.671Z,6.68
2023-06-27T00:02:28.623Z,6.50
2023-06-27T00:04:57.405Z,6.63
2023-06-27T00:07:29.049Z,6.53
2023-06-27T00:09:57.146Z,6.63
2023-06-27T00:12:25.061Z,6.80
2023-06-27T00:14:53.021Z,6.80
2023-06-27T00:17:24.146Z,6.50
2023-06-27T00:19:59.039Z,7.18
2023-06-27T00:22:27.418Z,7.43
2023-06-27T00:24:55.933Z,6.88
2023-06-27T00:27:24.304Z,6.63
2023-06-27T00:29:52.208Z,7.03
2023-06-27T00:32:20.053Z,7.35
2023-06-27T00:34:49.812Z,6.80
2023-06-27T00:37:17.632Z,6.88
2023-06-27T00:39:45.443Z,6.97
2023-06-27T00:42:13.248Z,6.85
2023-06-27T00:44:41.123Z,7.53
2023-06-27T00:47:09.920Z,7.47
2023-06-27T00:49:37.916Z,7.32
2023-06-27T00:52:09.250Z,7.80
2023-06-27T00:54:37.379Z,7.90
2023-06-27T00:57:05.333Z,7.55
2023-06-27T00:59:34.353Z,8.35
2023-06-27T01:02:02.134Z,8.35
2023-06-27T01:04:29.922Z,8.23
2023-06-27T01:07:03.511Z,8.30
2023-06-27T01:09:38.950Z,9.00
2023-06-27T01:12:15.289Z,8.93
2023-06-27T01:14:46.453Z,8.68
2023-06-27T01:17:15.977Z,9.32
2023-06-27T01:19:45.543Z,9.07
2023-06-27T01:22:18.244Z,9.18
2023-06-27T01:24:48.656Z,9.05
2023-06-27T01:27:16.831Z,8.90
2023-06-27T01:29:44.802Z,9.18
2023-06-27T01:32:19.480Z,9.38
2023-06-27T01:34:54.252Z,9.23
2023-06-27T01:37:25.729Z,8.82
2023-06-27T01:39:59.578Z,10.02
2023-06-27T01:42:32.460Z,9.93
2023-06-27T01:45:01.486Z,8.98
2023-06-27T01:47:31.641Z,9.82
2023-06-27T01:49:59.536Z,9.27
2023-06-27T01:52:27.399Z,8.70
2023-06-27T01:54:57.172Z,9.50
2023-06-27T01:57:24.938Z,9.30
2023-06-27T01:59:53.445Z,9.38
2023-06-27T02:02:21.538Z,9.02
2023-06-27T02:04:49.381Z,9.07
2023-06-27T02:07:17.236Z,10.48
2023-06-27T02:09:45.049Z,10.52
2023-06-27T02:12:14.169Z,9.48
2023-06-27T02:14:42.016Z,9.65
2023-06-27T02:17:10.574Z,9.52
2023-06-27T02:19:38.341Z,9.48
2023-06-27T02:22:06.758Z,9.68
2023-06-27T02:24:34.539Z,10.73
2023-06-27T02:27:02.515Z,10.23
2023-06-27T02:29:32.446Z,10.05
2023-06-27T02:32:00.548Z,10.07
2023-06-27T02:34:29.269Z,9.80
2023-06-27T02:36:57.053Z,10.30
2023-06-27T02:39:24.859Z,9.48
2023-06-27T02:41:52.608Z,9.68
2023-06-27T02:44:20.529Z,10.63
2023-06-27T02:46:49.782Z,9.50
2023-06-27T02:49:17.715Z,8.68
2023-06-27T02:51:45.565Z,10.02
2023-06-27T02:54:13.359Z,9.55
2023-06-27T02:56:41.190Z,9.68
2023-06-27T02:59:09.611Z,8.93
2023-06-27T03:01:37.419Z,9.05
2023-06-27T03:04:18.443Z,8.65
2023-06-27T03:06:46.748Z,8.48
2023-06-27T03:09:14.739Z,8.25
2023-06-27T03:11:42.777Z,8.23
2023-06-27T03:14:10.558Z,8.02
2023-06-27T03:16:38.524Z,7.90
2023-06-27T03:19:07.634Z,8.02
2023-06-27T03:21:35.920Z,7.88
2023-06-27T03:24:03.779Z,7.85
2023-06-27T03:26:31.528Z,7.72
2023-06-27T03:28:59.320Z,7.07
2023-06-27T03:31:27.249Z,7.30
2023-06-27T03:33:58.040Z,7.05
2023-06-27T03:36:27.402Z,7.30
2023-06-27T03:38:55.230Z,6.85
2023-06-27T03:41:23.338Z,7.18
2023-06-27T03:43:51.337Z,6.90
2023-06-27T03:46:19.088Z,6.80
2023-06-27T03:48:48.346Z,6.70
2023-06-27T03:51:16.301Z,6.82
2023-06-27T03:53:45.594Z,7.50
2023-06-27T03:56:13.604Z,6.65
2023-06-27T03:58:41.324Z,6.53
2023-06-27T04:01:09.095Z,6.20
2023-06-27T04:03:37.040Z,6.55
2023-06-27T04:06:05.093Z,6.50
2023-06-27T04:08:32.928Z,6.20
2023-06-27T04:11:02.094Z,6.43
2023-06-27T04:13:29.873Z,5.97
2023-06-27T04:15:57.711Z,6.35
2023-06-27T04:18:25.552Z,6.50
2023-06-27T04:20:53.295Z,6.20
2023-06-27T04:23:21.156Z,6.22
2023-06-27T04:26:05.373Z,6.00
2023-06-27T04:28:33.508Z,6.10
2023-06-27T04:31:02.455Z,6.35
2023-06-27T04:33:30.945Z,6.47
2023-06-27T04:36:02.651Z,6.65
2023-06-27T04:38:31.336Z,6.30
2023-06-27T04:40:59.902Z,6.40
2023-06-27T04:43:29.105Z,6.57
2023-06-27T04:45:56.948Z,6.80
2023-06-27T04:48:24.753Z,6.35
2023-06-27T04:50:53.334Z,6.50
2023-06-27T04:53:21.177Z,6.40
2023-06-27T04:55:49.168Z,6.47
2023-06-27T04:58:17.348Z,6.43
2023-06-27T05:00:48.296Z,6.60
2023-06-27T05:03:16.396Z,6.43
2023-06-27T05:05:44.764Z,6.20
2023-06-27T05:08:12.817Z,5.97
2023-06-27T05:10:40.615Z,6.05
2023-06-27T05:13:08.354Z,6.88
2023-06-27T05:15:36.166Z,6.03
2023-06-27T05:18:27.888Z,6.10
2023-06-27T05:20:56.885Z,5.72
2023-06-27T05:23:24.988Z,5.50
2023-06-27T05:25:52.812Z,6.38
2023-06-27T05:28:20.905Z,5.78
2023-06-27T05:30:48.886Z,6.15
2023-06-27T05:33:16.903Z,5.80
2023-06-27T05:35:46.117Z,5.68
2023-06-27T05:38:13.952Z,5.57
2023-06-27T05:40:41.744Z,4.75
2023-06-27T05:43:09.689Z,5.13
2023-06-27T05:45:38.446Z,5.28
2023-06-27T05:48:07.099Z,4.75
2023-06-27T05:50:35.180Z,5.03
2023-06-27T05:53:04.527Z,4.90
2023-06-27T05:55:32.892Z,4.38
2023-06-27T05:58:00.673Z,4.63
2023-06-27T06:00:28.863Z,4.20
2023-06-27T06:02:56.741Z,4.20
2023-06-27T06:05:24.671Z,4.53
2023-06-27T06:07:52.667Z,4.85
2023-06-27T06:10:23.124Z,4.43
2023-06-27T06:12:51.098Z,4.50
2023-06-27T06:15:19.313Z,3.90
2023-06-27T06:17:47.467Z,3.88
2023-06-27T06:20:15.761Z,3.80
2023-06-27T06:22:43.948Z,3.97
2023-06-27T06:25:11.779Z,3.17
2023-06-27T06:27:40.937Z,3.75
2023-06-27T06:30:10.467Z,3.50
2023-06-27T06:32:38.457Z,3.50
2023-06-27T06:35:07.465Z,3.28
2023-06-27T06:37:35.545Z,3.30
2023-06-27T06:40:03.452Z,3.35
2023-06-27T06:42:31.731Z,3.17
2023-06-27T06:45:00.914Z,3.38
2023-06-27T06:47:28.959Z,3.40
2023-06-27T06:49:56.924Z,3.65
2023-06-27T06:52:24.666Z,3.03
2023-06-27T06:54:52.528Z,2.90
2023-06-27T06:57:20.385Z,3.15
2023-06-27T06:59:48.646Z,2.97
2023-06-27T07:02:17.994Z,2.95
2023-06-27T07:04:45.850Z,2.95
2023-06-27T07:07:13.738Z,2.80
2023-06-27T07:09:42.289Z,2.75
2023-06-27T07:12:10.741Z,3.05
2023-06-27T07:14:38.516Z,2.80
2023-06-27T07:17:06.916Z,2.70
2023-06-27T07:19:36.103Z,2.63
2023-06-27T07:22:03.943Z,2.85
2023-06-27T07:24:32.028Z,2.85
2023-06-27T07:26:59.780Z,3.00
2023-06-27T07:29:27.569Z,2.90
2023-06-27T07:31:56.081Z,3.17
2023-06-27T07:34:23.931Z,3.00
2023-06-27T07:36:53.077Z,2.80
2023-06-27T07:41:51.279Z,2.85
2023-06-27T07:44:19.187Z,2.95
2023-06-27T07:46:47.178Z,2.70
2023-06-27T07:49:16.785Z,3.22
2023-06-27T07:51:47.173Z,2.90
2023-06-27T07:54:16.415Z,3.00
2023-06-27T07:56:44.550Z,2.92
2023-06-27T07:59:14.174Z,2.88
2023-06-27T08:01:42.893Z,3.50
2023-06-27T08:04:10.992Z,3.00
2023-06-27T08:06:38.911Z,3.03
2023-06-27T08:09:07.020Z,3.15
2023-06-27T08:11:36.403Z,3.00
2023-06-27T08:14:04.243Z,3.10
2023-06-27T08:16:32.081Z,2.90
2023-06-27T08:19:00.037Z,3.20
2023-06-27T08:21:28.014Z,3.13
2023-06-27T08:23:55.817Z,3.10
2023-06-27T08:26:23.853Z,3.17
2023-06-27T08:28:53.817Z,2.90
2023-06-27T08:31:21.667Z,3.08
2023-06-27T08:33:49.618Z,3.15
2023-06-27T08:36:17.446Z,3.10
2023-06-27T08:38:45.347Z,2.80
2023-06-27T08:41:15.084Z,2.90
2023-06-27T08:43:42.977Z,2.70
2023-06-27T08:46:12.757Z,3.10
2023-06-27T08:48:42.901Z,2.90
2023-06-27T08:51:14.922Z,3.00
2023-06-27T08:53:45.510Z,2.90
2023-06-27T08:56:16.615Z,3.20
2023-06-27T08:58:47.449Z,3.15
2023-06-27T09:01:16.737Z,3.08
2023-06-27T09:03:44.706Z,2.90
2023-06-27T09:06:14.269Z,2.78
2023-06-27T09:08:43.411Z,2.70
2023-06-27T09:11:11.524Z,2.92
2023-06-27T09:13:39.902Z,3.00
2023-06-27T09:16:09.086Z,3.20
2023-06-27T09:18:39.528Z,2.97
2023-06-27T09:21:08.191Z,2.90
2023-06-27T09:23:36.316Z,2.72
2023-06-27T09:26:08.071Z,2.80
2023-06-27T09:28:46.124Z,2.88
2023-06-27T09:31:15.267Z,2.70
2023-06-27T09:33:46.638Z,2.47
2023-06-27T09:39:04.876Z,2.83
2023-06-27T09:41:45.730Z,2.83
2023-06-27T09:44:15.027Z,2.80
2023-06-27T09:46:44.102Z,2.70
2023-06-27T09:49:13.359Z,2.42
2023-06-27T09:51:41.410Z,2.42
2023-06-27T09:54:09.235Z,2.47
2023-06-27T09:56:37.119Z,2.40
2023-06-27T09:59:17.689Z,2.50
2023-06-27T10:01:50.548Z,2.60
2023-06-27T10:04:19.819Z,2.25
2023-06-27T10:06:47.930Z,2.15
2023-06-27T10:09:16.093Z,2.45
2023-06-27T10:11:44.585Z,2.20
2023-06-27T10:14:12.412Z,2.10
2023-06-27T10:16:41.525Z,2.25
2023-06-27T10:19:09.758Z,2.10
2023-06-27T10:21:39.138Z,2.00
2023-06-27T10:24:09.024Z,2.13
2023-06-27T10:26:37.040Z,2.03
2023-06-27T10:29:15.323Z,2.20
2023-06-27T10:31:47.426Z,2.10
2023-06-27T10:34:20.382Z,2.17
2023-06-27T10:37:00.100Z,2.10
2023-06-27T10:39:32.653Z,3.60
2023-06-27T10:42:04.980Z,1.92
2023-06-27T10:44:33.708Z,2.00
2023-06-27T10:47:31.220Z,2.05
2023-06-27T10:50:13.407Z,1.90
2023-06-27T10:53:00.269Z,2.00
2023-06-27T10:55:31.566Z,1.80
2023-06-27T10:58:07.859Z,1.98
2023-06-27T11:00:36.821Z,2.00
2023-06-27T11:03:07.437Z,1.73
2023-06-27T11:05:44.682Z,1.95
2023-06-27T11:08:16.521Z,1.83
2023-06-27T11:10:52.456Z,2.03
2023-06-27T11:13:24.100Z,1.95
2023-06-27T11:15:54.982Z,1.90
2023-06-27T11:18:26.313Z,1.95
2023-06-27T11:20:55.110Z,1.95
2023-06-27T11:23:26.255Z,2.00
2023-06-27T11:25:55.473Z,2.10
2023-06-27T11:28:25.450Z,2.00
2023-06-27T11:31:00.034Z,2.22
2023-06-27T11:33:28.339Z,1.83
2023-06-27T11:35:59.528Z,1.85
2023-06-27T11:38:29.392Z,2.00
2023-06-27T11:40:57.264Z,1.92
2023-06-27T11:43:25.122Z,1.80
2023-06-27T11:45:54.186Z,2.10
2023-06-27T11:48:22.801Z,1.80
2023-06-27T11:51:06.495Z,1.90
2023-06-27T11:53:37.942Z,1.98
2023-06-27T11:56:21.442Z,1.75
2023-06-27T11:58:51.851Z,1.70
2023-06-27T12:01:20.240Z,1.98
2023-06-27T12:03:49.037Z,2.20
2023-06-27T12:06:25.758Z,2.00
2023-06-27T12:08:55.472Z,2.13
2023-06-27T12:11:33.890Z,1.90
2023-06-27T12:14:02.104Z,2.00
2023-06-27T12:16:33.877Z,1.92
2023-06-27T12:19:06.028Z,2.05
2023-06-27T12:21:34.328Z,1.80
2023-06-27T12:24:04.129Z,2.10
2023-06-27T12:26:31.978Z,1.88
2023-06-27T12:29:01.559Z,2.10
2023-06-27T12:31:29.791Z,2.10
2023-06-27T12:34:00.150Z,2.17
2023-06-27T12:36:28.993Z,2.13
2023-06-27T12:38:56.944Z,2.20
2023-06-27T12:41:27.389Z,1.90
2023-06-27T12:43:55.399Z,1.75
2023-06-27T12:46:23.314Z,1.90
2023-06-27T12:48:51.191Z,1.60
2023-06-27T12:51:20.897Z,1.63
2023-06-27T12:53:49.456Z,1.98
2023-06-27T12:56:18.129Z,1.83
2023-06-27T12:58:48.780Z,1.65
2023-06-27T13:01:18.287Z,1.73
2023-06-27T13:03:46.785Z,1.92
2023-06-27T13:06:14.683Z,1.85
2023-06-27T13:08:42.570Z,1.80
2023-06-27T13:11:10.410Z,1.80
2023-06-27T13:13:38.160Z,1.80
2023-06-27T13:16:15.920Z,1.90
2023-06-27T13:18:46.808Z,1.70
2023-06-27T13:21:14.924Z,1.90
2023-06-27T13:23:42.929Z,2.10
2023-06-27T13:26:10.877Z,1.80
2023-06-27T13:28:38.764Z,1.90
2023-06-27T13:31:08.112Z,1.88
2023-06-27T13:33:35.965Z,1.80
2023-06-27T13:36:03.894Z,2.00
2023-06-27T13:38:32.524Z,1.85
2023-06-27T13:41:00.349Z,1.80
2023-06-27T13:43:28.198Z,1.70
2023-06-27T13:45:56.012Z,1.60
2023-06-27T13:48:25.521Z,1.63
2023-06-27T13:50:54.762Z,1.95
2023-06-27T13:53:23.104Z,2.05
2023-06-27T13:55:51.374Z,2.05
2023-06-27T13:58:19.963Z,1.60
2023-06-27T14:00:49.883Z,1.55
2023-06-27T14:03:20.545Z,1.70
2023-06-27T14:05:50.221Z,1.58
2023-06-27T14:08:18.406Z,1.85
2023-06-27T14:10:46.659Z,1.92
2023-06-27T14:13:14.582Z,2.15
2023-06-27T14:15:42.443Z,1.55
2023-06-27T14:18:10.340Z,1.60
2023-06-27T14:20:38.371Z,1.50
2023-06-27T14:23:07.691Z,1.48
2023-06-27T14:25:35.504Z,1.60
2023-06-27T14:28:04.660Z,2.00
2023-06-27T14:30:33.223Z,1.70
2023-06-27T14:33:01.103Z,1.85
2023-06-27T14:35:28.950Z,1.50
2023-06-27T14:37:56.799Z,1.70
2023-06-27T14:40:26.384Z,1.75
2023-06-27T14:42:54.342Z,1.90
2023-06-27T14:45:22.465Z,1.60
2023-06-27T14:47:50.397Z,1.75
2023-06-27T14:50:19.233Z,1.70
2023-06-27T14:52:47.241Z,1.83
2023-06-27T14:55:15.211Z,2.20
2023-06-27T14:57:44.407Z,2.40
2023-06-27T15:00:17.082Z,2.03
2023-06-27T15:02:45.688Z,2.20
2023-06-27T15:05:14.436Z,2.40
2023-06-27T15:07:42.710Z,2.42
2023-06-27T15:10:11.150Z,2.13
2023-06-27T15:12:38.992Z,2.40
2023-06-27T15:15:09.807Z,2.10
2023-06-27T15:17:38.026Z,2.50
2023-06-27T15:20:07.425Z,2.65
2023-06-27T15:22:35.226Z,2.53
2023-06-27T15:25:03.523Z,2.60
2023-06-27T15:27:31.480Z,2.60
2023-06-27T15:29:59.236Z,2.55
2023-06-27T15:32:28.453Z,2.70
2023-06-27T15:34:56.189Z,2.38
2023-06-27T15:37:24.010Z,2.33
2023-06-27T15:39:54.843Z,2.50
2023-06-27T15:42:23.314Z,2.53
2023-06-27T15:44:51.274Z,2.20
2023-06-27T15:47:19.574Z,2.58
2023-06-27T15:49:49.523Z,2.40
2023-06-27T15:52:17.308Z,2.60
2023-06-27T15:54:45.063Z,2.55
2023-06-27T15:57:12.837Z,2.60
2023-06-27T15:59:40.673Z,2.72
2023-06-27T16:02:08.422Z,2.95
2023-06-27T16:04:36.871Z,3.00
2023-06-27T16:07:06.593Z,2.92
2023-06-27T16:09:35.306Z,2.80
2023-06-27T16:12:03.285Z,2.75
2023-06-27T16:14:31.070Z,2.80
2023-06-27T16:16:58.887Z,3.05
2023-06-27T16:19:26.728Z,2.60
2023-06-27T16:21:54.762Z,2.92
2023-06-27T16:24:23.868Z,2.72
2023-06-27T16:26:51.639Z,2.72
2023-06-27T16:29:20.361Z,3.00
2023-06-27T16:31:48.377Z,2.90
2023-06-27T16:34:16.385Z,2.67
2023-06-27T16:36:44.321Z,2.88
2023-06-27T16:39:12.139Z,2.92
2023-06-27T16:41:41.327Z,2.90
2023-06-27T16:44:11.693Z,2.92
2023-06-27T16:46:40.070Z,3.05
2023-06-27T16:49:07.946Z,3.10
2023-06-27T16:51:35.960Z,2.75
2023-06-27T16:54:03.738Z,3.13
2023-06-27T16:56:31.546Z,2.83
2023-06-27T16:59:00.787Z,2.20
2023-06-27T17:01:28.771Z,2.70
2023-06-27T17:03:56.593Z,3.00
2023-06-27T17:06:25.352Z,2.95
2023-06-27T17:08:53.167Z,3.00
2023-06-27T17:11:20.964Z,2.75
2023-06-27T17:13:49.483Z,2.53
2023-06-27T17:16:18.801Z,2.63
2023-06-27T17:18:46.589Z,2.88
2023-06-27T17:24:32.697Z,3.00
2023-06-27T17:27:00.603Z,3.30
2023-06-27T17:29:28.378Z,3.05
2023-06-27T17:31:57.542Z,2.78
2023-06-27T17:34:25.299Z,3.13
2023-06-27T17:36:53.105Z,3.15
2023-06-27T17:39:23.535Z,2.97
2023-06-27T17:41:52.716Z,3.40
2023-06-27T17:44:20.643Z,3.33
2023-06-27T17:46:48.456Z,3.40
2023-06-27T17:49:17.653Z,3.30
2023-06-27T17:51:45.522Z,3.75
2023-06-27T17:54:13.368Z,3.60
2023-06-27T17:56:41.152Z,3.38
2023-06-27T17:59:08.940Z,4.50
2023-06-27T18:01:37.237Z,4.28
2023-06-27T18:04:05.706Z,3.90
2023-06-27T18:06:34.834Z,4.00
2023-06-27T18:09:02.950Z,3.78
2023-06-27T18:11:30.969Z,4.00
2023-06-27T18:13:58.800Z,4.18
2023-06-27T18:16:26.613Z,4.35
2023-06-27T18:18:54.358Z,4.35
2023-06-27T18:21:22.115Z,4.18
2023-06-27T18:23:51.298Z,4.03
2023-06-27T18:26:19.063Z,4.20
2023-06-27T18:28:46.966Z,4.55
2023-06-27T18:31:16.221Z,4.50
2023-06-27T18:33:45.438Z,4.32
2023-06-27T18:36:13.363Z,4.45
2023-06-27T18:38:42.581Z,4.65
2023-06-27T18:41:11.767Z,4.40
2023-06-27T18:43:39.840Z,4.65
2023-06-27T18:46:07.681Z,4.20
2023-06-27T18:48:36.313Z,4.30
2023-06-27T18:51:04.424Z,4.70
2023-06-27T18:53:32.288Z,4.78
2023-06-27T18:56:00.186Z,4.47
2023-06-27T18:58:29.410Z,4.57
2023-06-27T19:00:57.290Z,5.10
2023-06-27T19:03:25.839Z,4.53
2023-06-27T19:05:54.343Z,4.75
2023-06-27T19:08:22.257Z,4.63
2023-06-27T19:10:49.985Z,4.15
2023-06-27T19:13:18.757Z,4.95
2023-06-27T19:15:48.432Z,4.40
2023-06-27T19:18:16.681Z,4.47
2023-06-27T19:20:45.397Z,4.30
2023-06-27T19:23:13.904Z,4.53
2023-06-27T19:25:41.668Z,4.47
2023-06-27T19:28:09.430Z,4.53
2023-06-27T19:30:37.832Z,4.55
2023-06-27T19:33:07.044Z,4.85
2023-06-27T19:35:35.915Z,6.13
2023-06-27T19:38:03.953Z,6.90
2023-06-27T19:40:31.823Z,5.80
2023-06-27T19:43:00.440Z,5.10
2023-06-27T19:45:28.440Z,4.82
2023-06-27T19:47:56.469Z,5.10
2023-06-27T19:50:25.766Z,5.68
2023-06-27T19:52:53.689Z,4.63
2023-06-27T19:55:22.182Z,5.15
2023-06-27T19:57:49.996Z,5.10
2023-06-27T20:00:18.948Z,4.60
2023-06-27T20:02:46.777Z,4.78
2023-06-27T20:05:14.645Z,4.93
2023-06-27T20:07:43.904Z,5.13
2023-06-27T20:10:12.956Z,4.72
2023-06-27T20:12:41.113Z,5.03
2023-06-27T20:15:10.348Z,5.25
2023-06-27T20:17:38.212Z,5.25
2023-06-27T20:20:08.017Z,5.10
2023-06-27T20:22:35.964Z,5.57
2023-06-27T20:25:05.585Z,5.60
2023-06-27T20:27:33.399Z,5.35
2023-06-27T20:30:01.248Z,5.68
2023-06-27T20:32:29.124Z,5.50
2023-06-27T20:34:56.976Z,5.22
2023-06-27T20:37:24.799Z,5.47
2023-06-27T20:39:52.687Z,5.10
2023-06-27T20:42:21.874Z,5.63
2023-06-27T20:44:49.680Z,5.35
2023-06-27T20:47:18.237Z,5.82
2023-06-27T20:49:46.202Z,6.10
2023-06-27T20:52:14.513Z,6.00
2023-06-27T20:54:42.620Z,5.95
2023-06-27T20:57:10.428Z,6.82
2023-06-27T20:59:39.803Z,6.40
2023-06-27T21:02:08.051Z,5.90
2023-06-27T21:04:36.055Z,5.97
2023-06-27T21:07:03.854Z,6.57
2023-06-27T21:09:31.617Z,6.05
2023-06-27T21:11:59.642Z,6.18
2023-06-27T21:14:27.445Z,6.63
2023-06-27T21:17:01.281Z,6.38
2023-06-27T21:19:29.142Z,6.38
2023-06-27T21:21:58.984Z,6.05
2023-06-27T21:24:26.838Z,6.65
2023-06-27T21:26:54.646Z,6.60
2023-06-27T21:29:22.418Z,6.82
2023-06-27T21:31:50.777Z,6.60
2023-06-27T21:34:20.032Z,6.30
2023-06-27T21:36:47.864Z,6.50
2023-06-27T21:39:15.624Z,6.03
2023-06-27T21:41:43.359Z,6.30
2023-06-27T21:44:11.248Z,6.80
2023-06-27T21:46:39.093Z,6.38
2023-06-27T21:49:08.587Z,6.65
2023-06-27T21:51:37.975Z,6.65
2023-06-27T21:54:05.883Z,6.60
2023-06-27T21:56:33.700Z,6.72
2023-06-27T21:59:01.482Z,7.07
2023-06-27T22:01:29.431Z,6.30
2023-06-27T22:03:57.300Z,7.55
2023-06-27T22:06:38.456Z,6.78
2023-06-27T22:09:07.961Z,6.95
2023-06-27T22:11:35.740Z,6.70
2023-06-27T22:14:03.567Z,7.25
2023-06-27T22:16:31.516Z,7.15
2023-06-27T22:18:59.466Z,7.18
2023-06-27T22:21:27.223Z,7.30
2023-06-27T22:23:55.078Z,7.25
2023-06-27T22:26:24.376Z,7.32
2023-06-27T22:28:52.129Z,7.60
2023-06-27T22:31:20.013Z,7.13
2023-06-27T22:33:48.031Z,7.30
2023-06-27T22:36:15.898Z,7.55
2023-06-27T22:38:43.620Z,7.53
2023-06-27T22:41:11.418Z,7.53
2023-06-27T22:43:40.647Z,7.47
2023-06-27T22:46:08.374Z,7.38
2023-06-27T22:48:36.254Z,7.60
2023-06-27T22:51:04.943Z,7.25
2023-06-27T22:53:32.673Z,8.20
2023-06-27T22:56:00.516Z,7.75
2023-06-27T22:58:28.242Z,7.85
2023-06-27T23:00:57.389Z,8.00
2023-06-27T23:03:25.201Z,7.88
2023-06-27T23:05:53.002Z,7.70
2023-06-27T23:08:20.779Z,7.78
2023-06-27T23:10:48.608Z,8.15
2023-06-27T23:13:16.610Z,7.40
2023-06-27T23:15:44.586Z,7.88
2023-06-27T23:18:18.063Z,7.93
2023-06-27T23:20:46.104Z,8.20
2023-06-27T23:23:14.026Z,7.90
2023-06-27T23:25:44.567Z,7.80
2023-06-27T23:28:12.547Z,8.23
2023-06-27T23:30:40.665Z,8.13
2023-06-27T23:33:11.258Z,8.68
2023-06-27T23:35:40.401Z,8.35
2023-06-27T23:38:08.351Z,8.43
2023-06-27T23:40:36.212Z,8.35
2023-06-27T23:43:04.075Z,9.15
2023-06-27T23:45:32.015Z,8.68
2023-06-27T23:48:00.161Z,8.85
2023-06-27T23:50:28.112Z,8.68
2023-06-27T23:52:57.239Z,9.23
2023-06-27T23:55:25.028Z,8.88
2023-06-27T23:57:52.896Z,8.95
